createdAt,value
2018-06-14T00:00:16.693Z,1008.49
2018-06-14T00:02:16.771Z,1008.55
2018-06-14T00:03:16.467Z,1008.53
2018-06-14T00:04:16.433Z,1008.54
2018-06-14T00:05:16.495Z,1008.54
2018-06-14T00:06:16.465Z,1008.58
2018-06-14T00:07:16.381Z,1008.58
2018-06-14T00:08:16.727Z,1008.59
2018-06-14T00:09:16.418Z,1008.58
2018-06-14T00:10:16.431Z,1008.60
2018-06-14T00:11:16.372Z,1008.57
2018-06-14T00:12:16.421Z,1008.61
2018-06-14T00:13:16.226Z,1008.63
2018-06-14T00:14:16.966Z,1008.61
2018-06-14T00:16:16.309Z,1008.63
2018-06-14T00:17:16.179Z,1008.68
2018-06-14T00:18:16.179Z,1008.62
2018-06-14T00:19:16.113Z,1008.65
2018-06-14T00:20:16.469Z,1008.66
2018-06-14T00:21:16.472Z,1008.71
2018-06-14T00:22:16.131Z,1008.71
2018-06-14T00:23:16.100Z,1008.70
2018-06-14T00:24:16.014Z,1008.76
2018-06-14T00:25:16.069Z,1008.79
2018-06-14T00:26:16.411Z,1008.78
2018-06-14T00:28:16.011Z,1008.78
2018-06-14T00:29:16.012Z,1008.78
2018-06-14T00:30:16.045Z,1008.70
2018-06-14T00:31:16.071Z,1008.71
2018-06-14T00:32:17.023Z,1008.73
2018-06-14T00:33:16.035Z,1008.77
2018-06-14T00:34:17.480Z,1008.73
2018-06-14T00:35:15.891Z,1008.74
2018-06-14T00:38:16.180Z,1008.77
2018-06-14T00:39:15.898Z,1008.77
2018-06-14T00:40:15.846Z,1008.75
2018-06-14T00:42:15.939Z,1008.72
2018-06-14T00:43:15.794Z,1008.68
2018-06-14T00:44:15.960Z,1008.74
2018-06-14T00:46:15.651Z,1008.74
2018-06-14T00:47:15.707Z,1008.74
2018-06-14T00:48:15.603Z,1008.78
2018-06-14T00:49:15.940Z,1008.79
2018-06-14T00:50:15.655Z,1008.80
2018-06-14T00:51:15.608Z,1008.79
2018-06-14T00:52:15.938Z,1008.82
2018-06-14T00:53:15.564Z,1008.83
2018-06-14T00:54:15.568Z,1008.81
2018-06-14T00:55:15.510Z,1008.81
2018-06-14T00:56:15.558Z,1008.83
2018-06-14T00:57:15.553Z,1008.84
2018-06-14T00:58:15.506Z,1008.86
2018-06-14T01:00:15.752Z,1008.85
2018-06-14T01:01:15.411Z,1008.83
2018-06-14T01:06:15.610Z,1008.86
2018-06-14T01:07:15.266Z,1008.93
2018-06-14T01:08:15.379Z,1008.96
2018-06-14T01:09:15.269Z,1008.95
2018-06-14T01:10:15.270Z,1009.00
2018-06-14T01:11:15.215Z,1009.03
2018-06-14T01:12:15.218Z,1009.02
2018-06-14T01:13:15.476Z,1009.04
2018-06-14T01:15:15.325Z,1009.00
2018-06-14T01:16:15.316Z,1008.98
2018-06-14T01:17:15.226Z,1008.95
2018-06-14T01:18:15.268Z,1008.93
2018-06-14T01:19:15.122Z,1008.94
2018-06-14T01:20:15.413Z,1008.95
2018-06-14T01:21:15.028Z,1008.89
2018-06-14T01:22:15.091Z,1008.91
2018-06-14T01:23:15.034Z,1008.92
2018-06-14T01:24:15.198Z,1008.90
2018-06-14T01:25:15.175Z,1008.88
2018-06-14T01:26:15.274Z,1008.91
2018-06-14T01:27:14.948Z,1008.90
2018-06-14T01:28:15.028Z,1008.86
2018-06-14T01:29:14.943Z,1008.90
2018-06-14T01:30:14.875Z,1008.83
2018-06-14T01:31:14.855Z,1008.78
2018-06-14T01:32:15.185Z,1008.80
2018-06-14T01:33:14.835Z,1008.81
2018-06-14T01:34:14.836Z,1008.85
2018-06-14T01:35:14.834Z,1008.89
2018-06-14T01:36:15.555Z,1008.91
2018-06-14T01:37:14.762Z,1008.87
2018-06-14T01:38:15.075Z,1008.91
2018-06-14T01:39:14.834Z,1008.91
2018-06-14T01:40:14.744Z,1008.88
2018-06-14T01:41:14.749Z,1008.95
2018-06-14T01:42:14.795Z,1009.01
2018-06-14T01:44:15.079Z,1009.02
2018-06-14T01:45:14.739Z,1009.02
2018-06-14T01:46:14.738Z,1008.98
2018-06-14T01:47:14.549Z,1009.00
2018-06-14T01:48:14.653Z,1008.98
2018-06-14T01:49:14.595Z,1009.04
2018-06-14T01:50:14.789Z,1009.04
2018-06-14T01:51:14.547Z,1009.04
2018-06-14T01:52:14.518Z,1009.02
2018-06-14T01:54:14.466Z,1009.05
2018-06-14T01:55:14.403Z,1009.04
2018-06-14T01:58:14.705Z,1009.03
2018-06-14T01:59:14.402Z,1009.07
2018-06-14T02:00:14.406Z,1009.08
2018-06-14T02:01:14.368Z,1009.07
2018-06-14T02:02:14.355Z,1009.08
2018-06-14T02:03:14.259Z,1009.09
2018-06-14T02:04:14.247Z,1009.07
2018-06-14T02:05:14.595Z,1009.07
2018-06-14T02:06:14.366Z,1009.09
2018-06-14T02:07:14.286Z,1009.09
2018-06-14T02:08:14.192Z,1009.09
2018-06-14T02:09:14.307Z,1009.08
2018-06-14T02:10:14.142Z,1009.07
2018-06-14T02:11:14.214Z,1009.10
2018-06-14T02:12:14.548Z,1009.07
2018-06-14T02:13:14.115Z,1009.05
2018-06-14T02:16:14.549Z,1009.02
2018-06-14T02:18:14.599Z,1009.02
2018-06-14T02:19:14.055Z,1009.05
2018-06-14T02:20:14.068Z,1009.03
2018-06-14T02:21:14.116Z,1009.05
2018-06-14T02:22:13.949Z,1009.01
2018-06-14T02:23:13.971Z,1009.02
2018-06-14T02:24:14.067Z,1009.01
2018-06-14T02:25:14.235Z,1009.05
2018-06-14T02:26:13.972Z,1009.05
2018-06-14T02:27:13.931Z,1009.05
2018-06-14T02:28:14.115Z,1009.05
2018-06-14T02:29:13.897Z,1009.06
2018-06-14T02:30:13.875Z,1009.09
2018-06-14T02:31:19.324Z,1009.08
2018-06-14T02:32:14.852Z,1009.11
2018-06-14T02:33:13.757Z,1009.09
2018-06-14T02:34:13.827Z,1009.10
2018-06-14T02:35:13.797Z,1009.11
2018-06-14T02:36:13.834Z,1009.11
2018-06-14T02:37:13.874Z,1009.14
2018-06-14T02:38:13.683Z,1009.14
2018-06-14T02:39:13.977Z,1009.15
2018-06-14T02:40:13.779Z,1009.13
2018-06-14T02:41:13.688Z,1009.12
2018-06-14T02:42:13.784Z,1009.14
2018-06-14T02:43:13.737Z,1009.16
2018-06-14T02:44:14.405Z,1009.15
2018-06-14T02:45:13.651Z,1009.16
2018-06-14T02:47:13.882Z,1009.18
2018-06-14T02:48:13.683Z,1009.15
2018-06-14T02:49:13.731Z,1009.16
2018-06-14T02:50:13.539Z,1009.17
2018-06-14T02:52:13.445Z,1009.19
2018-06-14T02:53:13.733Z,1009.19
2018-06-14T02:55:13.553Z,1009.18
2018-06-14T02:56:13.396Z,1009.15
2018-06-14T02:57:13.419Z,1009.16
2018-06-14T02:58:13.349Z,1009.17
2018-06-14T02:59:13.620Z,1009.17
2018-06-14T03:00:13.505Z,1009.18
2018-06-14T03:01:13.411Z,1009.17
2018-06-14T03:03:13.396Z,1009.18
2018-06-14T03:04:13.306Z,1009.16
2018-06-14T03:05:13.541Z,1009.16
2018-06-14T03:06:13.204Z,1009.12
2018-06-14T03:07:13.251Z,1009.12
2018-06-14T03:08:13.254Z,1009.11
2018-06-14T03:09:13.157Z,1009.12
2018-06-14T03:10:13.136Z,1009.14
2018-06-14T03:11:13.491Z,1009.14
2018-06-14T03:12:13.108Z,1009.18
2018-06-14T03:13:13.174Z,1009.18
2018-06-14T03:14:13.086Z,1009.15
2018-06-14T03:15:13.165Z,1009.16
2018-06-14T03:16:13.156Z,1009.13
2018-06-14T03:17:13.385Z,1009.18
2018-06-14T03:18:13.106Z,1009.20
2018-06-14T03:19:13.059Z,1009.22
2018-06-14T03:20:13.013Z,1009.18
2018-06-14T03:21:13.011Z,1009.23
2018-06-14T03:22:13.011Z,1009.21
2018-06-14T03:23:13.278Z,1009.25
2018-06-14T03:24:12.963Z,1009.26
2018-06-14T03:25:13.011Z,1009.25
2018-06-14T03:26:12.970Z,1009.21
2018-06-14T03:27:12.971Z,1009.24
2018-06-14T03:28:12.915Z,1009.25
2018-06-14T03:29:13.154Z,1009.27
2018-06-14T03:30:12.820Z,1009.26
2018-06-14T03:31:13.024Z,1009.25
2018-06-14T03:32:12.766Z,1009.28
2018-06-14T03:33:12.804Z,1009.26
2018-06-14T03:34:12.913Z,1009.26
2018-06-14T03:35:12.916Z,1009.27
2018-06-14T03:36:13.402Z,1009.25
2018-06-14T03:37:12.819Z,1009.26
2018-06-14T03:38:12.674Z,1009.24
2018-06-14T03:39:12.653Z,1009.20
2018-06-14T03:40:12.694Z,1009.15
2018-06-14T03:42:12.955Z,1009.17
2018-06-14T03:43:12.689Z,1009.12
2018-06-14T03:44:12.724Z,1009.10
2018-06-14T03:45:12.580Z,1009.10
2018-06-14T03:46:12.830Z,1009.09
2018-06-14T03:47:12.691Z,1009.06
2018-06-14T03:49:12.868Z,1009.08
2018-06-14T03:50:12.557Z,1009.14
2018-06-14T03:51:12.531Z,1009.12
2018-06-14T03:52:12.890Z,1009.09
2018-06-14T03:53:12.480Z,1009.09
2018-06-14T03:54:12.543Z,1009.10
2018-06-14T03:55:12.444Z,1009.10
2018-06-14T03:56:12.672Z,1009.11
2018-06-14T03:57:12.381Z,1009.10
2018-06-14T03:58:12.341Z,1009.09
2018-06-14T03:59:12.388Z,1009.12
2018-06-14T04:00:12.320Z,1009.06
2018-06-14T04:02:12.645Z,1009.07
2018-06-14T04:04:12.323Z,1009.06
2018-06-14T04:05:12.227Z,1009.08
2018-06-14T04:06:12.278Z,1009.10
2018-06-14T04:07:12.255Z,1009.07
2018-06-14T04:09:12.889Z,1009.08
2018-06-14T04:10:12.345Z,1009.04
2018-06-14T04:11:12.206Z,1009.04
2018-06-14T04:12:12.192Z,1009.08
2018-06-14T04:13:12.171Z,1009.07
2018-06-14T04:14:12.204Z,1009.10
2018-06-14T04:16:12.580Z,1009.08
2018-06-14T04:18:12.098Z,1009.07
2018-06-14T04:19:12.110Z,1009.05
2018-06-14T04:20:12.050Z,1009.05
2018-06-14T04:21:12.098Z,1009.03
2018-06-14T04:23:12.414Z,1009.06
2018-06-14T04:24:11.954Z,1009.08
2018-06-14T04:25:11.906Z,1009.06
2018-06-14T04:26:11.975Z,1009.05
2018-06-14T04:27:11.906Z,1009.06
2018-06-14T04:28:11.923Z,1009.04
2018-06-14T04:29:12.200Z,1009.02
2018-06-14T04:30:11.817Z,1009.01
2018-06-14T04:31:11.812Z,1009.03
2018-06-14T04:32:11.810Z,1009.04
2018-06-14T04:33:11.772Z,1009.04
2018-06-14T04:34:11.763Z,1009.07
2018-06-14T04:35:12.195Z,1009.03
2018-06-14T04:36:11.762Z,1009.05
2018-06-14T04:37:11.762Z,1009.06
2018-06-14T04:38:11.694Z,1009.06
2018-06-14T04:39:12.028Z,1009.03
2018-06-14T04:40:11.754Z,1009.02
2018-06-14T04:41:12.102Z,1009.04
2018-06-14T04:42:11.715Z,1009.06
2018-06-14T04:43:11.668Z,1009.04
2018-06-14T04:44:11.618Z,1009.03
2018-06-14T04:45:11.619Z,1009.02
2018-06-14T04:46:11.619Z,1009.04
2018-06-14T04:47:11.955Z,1009.01
2018-06-14T04:48:11.549Z,1009.01
2018-06-14T04:49:11.570Z,1008.97
2018-06-14T04:50:11.523Z,1009.00
2018-06-14T04:51:11.525Z,1009.03
2018-06-14T04:52:11.476Z,1008.99
2018-06-14T04:53:11.813Z,1009.01
2018-06-14T04:55:11.477Z,1008.95
2018-06-14T04:56:11.475Z,1009.00
2018-06-14T04:57:11.426Z,1008.99
2018-06-14T04:58:11.570Z,1009.06
2018-06-14T04:59:11.929Z,1009.06
2018-06-14T05:01:11.764Z,1009.05
2018-06-14T05:02:11.390Z,1009.05
2018-06-14T05:03:11.331Z,1009.03
2018-06-14T05:04:11.339Z,1009.01
2018-06-14T05:05:11.427Z,1009.01
2018-06-14T05:06:11.571Z,1009.04
2018-06-14T05:07:11.283Z,1009.05
2018-06-14T05:08:11.229Z,1009.01
2018-06-14T05:09:11.235Z,1008.99
2018-06-14T05:10:11.235Z,1008.96
2018-06-14T05:11:11.236Z,1008.96
2018-06-14T05:12:11.170Z,1008.97
2018-06-14T05:14:11.187Z,1008.96
2018-06-14T05:15:11.143Z,1008.96
2018-06-14T05:16:11.267Z,1008.93
2018-06-14T05:17:11.192Z,1008.92
2018-06-14T05:18:11.120Z,1008.92
2018-06-14T05:19:11.099Z,1008.92
2018-06-14T05:20:11.357Z,1008.96
2018-06-14T05:21:11.042Z,1008.94
2018-06-14T05:22:11.044Z,1008.98
2018-06-14T05:23:11.046Z,1008.96
2018-06-14T05:24:10.996Z,1008.97
2018-06-14T05:25:10.985Z,1008.97
2018-06-14T05:27:11.290Z,1009.01
2018-06-14T05:30:11.069Z,1009.08
2018-06-14T05:32:10.962Z,1009.08
2018-06-14T05:35:10.953Z,1009.12
2018-06-14T05:42:11.306Z,1009.11
2018-06-14T05:44:10.902Z,1009.12
2018-06-14T05:46:10.807Z,1009.15
2018-06-14T05:47:10.803Z,1009.13
2018-06-14T05:48:10.760Z,1009.09
2018-06-14T05:49:11.139Z,1009.10
2018-06-14T05:50:10.939Z,1009.10
2018-06-14T05:51:10.731Z,1009.09
2018-06-14T05:52:10.765Z,1009.14
2018-06-14T05:53:10.680Z,1009.16
2018-06-14T05:54:10.707Z,1009.14
2018-06-14T05:55:11.047Z,1009.20
2018-06-14T05:56:10.912Z,1009.12
2018-06-14T05:57:10.914Z,1009.16
2018-06-14T05:58:10.591Z,1009.16
2018-06-14T05:59:10.652Z,1009.13
2018-06-14T06:00:10.463Z,1009.18
2018-06-14T06:01:10.900Z,1009.17
2018-06-14T06:02:10.622Z,1009.19
2018-06-14T06:03:10.553Z,1009.23
2018-06-14T06:04:10.543Z,1009.15
2018-06-14T06:05:10.497Z,1009.15
2018-06-14T06:06:10.484Z,1009.16
2018-06-14T06:07:10.917Z,1009.17
2018-06-14T06:08:10.551Z,1009.17
2018-06-14T06:09:10.423Z,1009.16
2018-06-14T06:10:10.468Z,1009.13
2018-06-14T06:11:10.469Z,1009.20
2018-06-14T06:12:10.428Z,1009.21
2018-06-14T06:13:11.012Z,1009.19
2018-06-14T06:14:10.547Z,1009.19
2018-06-14T06:15:10.420Z,1009.21
2018-06-14T06:16:10.244Z,1009.27
2018-06-14T06:17:10.243Z,1009.22
2018-06-14T06:18:10.218Z,1009.22
2018-06-14T06:19:10.508Z,1009.25
2018-06-14T06:20:10.259Z,1009.27
2018-06-14T06:22:10.173Z,1009.33
2018-06-14T06:23:10.256Z,1009.29
2018-06-14T06:24:10.137Z,1009.28
2018-06-14T06:25:10.453Z,1009.29
2018-06-14T06:26:10.231Z,1009.25
2018-06-14T06:27:10.105Z,1009.26
2018-06-14T06:28:10.108Z,1009.27
2018-06-14T06:29:10.405Z,1009.37
2018-06-14T06:30:10.062Z,1009.36
2018-06-14T06:31:10.520Z,1009.42
2018-06-14T06:32:10.217Z,1009.38
2018-06-14T06:33:10.347Z,1009.41
2018-06-14T06:35:10.021Z,1009.42
2018-06-14T06:36:10.622Z,1009.39
2018-06-14T06:37:10.081Z,1009.49
2018-06-14T06:39:10.309Z,1009.43
2018-06-14T06:40:09.940Z,1009.39
2018-06-14T06:41:10.027Z,1009.44
2018-06-14T06:43:10.000Z,1009.37
2018-06-14T06:44:09.992Z,1009.38
2018-06-14T06:45:09.994Z,1009.37
2018-06-14T06:46:10.356Z,1009.37
2018-06-14T06:47:09.958Z,1009.36
2018-06-14T06:48:09.835Z,1009.44
2018-06-14T06:49:09.825Z,1009.41
2018-06-14T06:50:09.822Z,1009.43
2018-06-14T06:51:09.862Z,1009.42
2018-06-14T06:52:09.803Z,1009.41
2018-06-14T06:53:10.213Z,1009.50
2018-06-14T06:54:09.764Z,1009.47
2018-06-14T06:55:09.854Z,1009.43
2018-06-14T06:56:09.843Z,1009.44
2018-06-14T06:57:09.833Z,1009.42
2018-06-14T06:58:09.815Z,1009.39
2018-06-14T06:59:09.873Z,1009.40
2018-06-14T07:00:09.991Z,1009.36
2018-06-14T07:01:09.680Z,1009.34
2018-06-14T07:03:09.708Z,1009.37
2018-06-14T07:04:09.643Z,1009.36
2018-06-14T07:05:09.708Z,1009.33
2018-06-14T07:06:09.757Z,1009.34
2018-06-14T07:07:09.922Z,1009.34
2018-06-14T07:08:09.605Z,1009.40
2018-06-14T07:09:09.633Z,1009.40
2018-06-14T07:10:14.222Z,1009.40
2018-06-14T07:11:09.580Z,1009.39
2018-06-14T07:12:09.553Z,1009.36
2018-06-14T07:13:09.539Z,1009.38
2018-06-14T07:14:09.837Z,1009.35
2018-06-14T07:15:09.573Z,1009.40
2018-06-14T07:16:09.516Z,1009.44
2018-06-14T07:17:09.586Z,1009.34
2018-06-14T07:18:09.480Z,1009.39
2018-06-14T07:19:09.593Z,1009.42
2018-06-14T07:20:09.452Z,1009.44
2018-06-14T07:21:09.795Z,1009.58
2018-06-14T07:22:09.441Z,1009.45
2018-06-14T07:24:09.430Z,1009.46
2018-06-14T07:25:09.395Z,1009.41
2018-06-14T07:26:09.388Z,1009.46
2018-06-14T07:27:09.728Z,1009.39
2018-06-14T07:28:09.374Z,1009.34
2018-06-14T07:29:09.352Z,1009.41
2018-06-14T07:30:09.354Z,1009.28
2018-06-14T07:31:09.370Z,1009.28
2018-06-14T07:32:09.326Z,1009.30
2018-06-14T07:33:09.664Z,1009.30
2018-06-14T07:34:09.296Z,1009.28
2018-06-14T07:35:09.334Z,1009.31
2018-06-14T07:36:09.283Z,1009.26
2018-06-14T07:37:09.317Z,1009.26
2018-06-14T07:38:09.250Z,1009.27
2018-06-14T07:39:09.589Z,1009.24
2018-06-14T07:41:09.215Z,1009.23
2018-06-14T07:42:09.203Z,1009.36
2018-06-14T07:43:09.199Z,1009.32
2018-06-14T07:44:09.198Z,1009.20
2018-06-14T07:45:09.529Z,1009.18
2018-06-14T07:46:09.222Z,1009.20
2018-06-14T07:47:09.171Z,1009.23
2018-06-14T07:48:09.171Z,1009.22
2018-06-14T07:50:09.185Z,1009.32
2018-06-14T07:51:09.459Z,1009.40
2018-06-14T07:52:09.094Z,1009.27
2018-06-14T07:53:09.123Z,1009.21
2018-06-14T07:54:09.143Z,1009.18
2018-06-14T07:56:09.077Z,1009.15
2018-06-14T07:57:09.123Z,1009.19
2018-06-14T07:58:10.116Z,1009.13
2018-06-14T07:59:09.028Z,1009.14
2018-06-14T08:00:09.046Z,1009.16
2018-06-14T08:01:09.077Z,1009.19
2018-06-14T08:02:09.078Z,1009.18
2018-06-14T08:03:09.067Z,1009.10
2018-06-14T08:05:09.053Z,1009.14
2018-06-14T08:06:09.048Z,1009.15
2018-06-14T08:07:08.977Z,1009.13
2018-06-14T08:08:08.928Z,1009.51
2018-06-14T08:09:08.974Z,1014.97
2018-06-14T08:10:09.266Z,1015.15
2018-06-14T08:11:08.963Z,1009.19
2018-06-14T08:12:08.931Z,1015.05
2018-06-14T08:13:08.931Z,1009.24
2018-06-14T08:14:09.002Z,1009.58
2018-06-14T08:15:08.944Z,1013.45
2018-06-14T08:16:08.882Z,1012.95
2018-06-14T08:17:09.143Z,1012.86
2018-06-14T08:18:08.935Z,1013.51
2018-06-14T08:19:08.943Z,1012.94
2018-06-14T08:20:08.818Z,1012.96
2018-06-14T08:21:08.891Z,1009.24
2018-06-14T08:23:09.171Z,1013.25
2018-06-14T08:24:08.795Z,1013.21
2018-06-14T08:25:08.772Z,1011.91
2018-06-14T08:26:08.895Z,1011.97
2018-06-14T08:27:08.937Z,1013.39
2018-06-14T08:29:09.045Z,1012.41
2018-06-14T08:30:08.739Z,1010.04
2018-06-14T08:31:08.738Z,1011.02
2018-06-14T08:33:08.758Z,1009.78
2018-06-14T08:35:09.026Z,1009.91
2018-06-14T08:36:08.756Z,1009.56
2018-06-14T08:37:08.679Z,1009.74
2018-06-14T08:38:08.693Z,1009.89
2018-06-14T08:39:08.758Z,1009.37
2018-06-14T08:40:08.675Z,1009.76
2018-06-14T08:41:08.691Z,1009.85
2018-06-14T08:42:08.949Z,1009.97
2018-06-14T08:43:08.651Z,1009.91
2018-06-14T08:44:08.643Z,1009.29
2018-06-14T08:45:09.027Z,1009.63
2018-06-14T08:46:08.620Z,1009.44
2018-06-14T08:47:08.644Z,1009.19
2018-06-14T08:48:08.595Z,1009.16
2018-06-14T08:50:08.569Z,1010.74
2018-06-14T08:51:08.649Z,1011.35
2018-06-14T08:52:08.568Z,1009.52
2018-06-14T08:53:08.594Z,1010.12
2018-06-14T08:54:08.553Z,1009.39
2018-06-14T08:55:08.537Z,1010.74
2018-06-14T08:56:08.835Z,1010.53
2018-06-14T08:57:08.565Z,1010.41
2018-06-14T08:58:08.547Z,1009.90
2018-06-14T09:00:08.498Z,1010.75
2018-06-14T09:01:08.585Z,1010.82
2018-06-14T09:02:08.788Z,1009.16
2018-06-14T09:03:08.537Z,1009.22
2018-06-14T09:04:08.574Z,1009.49
2018-06-14T09:05:08.511Z,1010.07
2018-06-14T09:06:08.456Z,1010.78
2018-06-14T09:07:08.560Z,1010.76
2018-06-14T09:08:08.871Z,1010.59
2018-06-14T09:09:08.642Z,1010.79
2018-06-14T09:10:08.532Z,1010.72
2018-06-14T09:11:08.653Z,1010.77
2018-06-14T09:12:08.515Z,1010.36
2018-06-14T09:13:08.546Z,1010.02
2018-06-14T09:14:08.828Z,1010.58
2018-06-14T09:16:08.392Z,1010.29
2018-06-14T09:18:10.609Z,1010.63
2018-06-14T09:19:15.058Z,1010.58
2018-06-14T09:20:16.786Z,1010.41
2018-06-14T09:21:08.381Z,1010.48
2018-06-14T09:24:08.340Z,1009.32
2018-06-14T09:25:08.648Z,1010.65
2018-06-14T09:26:08.394Z,1011.16
2018-06-14T09:27:08.333Z,1010.92
2018-06-14T09:28:08.325Z,1011.28
2018-06-14T09:29:08.680Z,1011.56
2018-06-14T09:30:08.352Z,1011.68
2018-06-14T09:31:08.644Z,1011.83
2018-06-14T09:32:08.358Z,1011.57
2018-06-14T09:33:08.311Z,1011.59
2018-06-14T09:34:08.300Z,1011.33
2018-06-14T09:35:08.417Z,1011.45
2018-06-14T09:36:08.304Z,1011.68
2018-06-14T09:37:08.660Z,1011.81
2018-06-14T09:38:08.340Z,1012.31
2018-06-14T09:39:08.286Z,1009.13
2018-06-14T09:40:08.289Z,1012.52
2018-06-14T09:41:08.306Z,1009.05
2018-06-14T09:42:08.305Z,1012.03
2018-06-14T09:43:08.629Z,1012.10
2018-06-14T09:44:08.355Z,1012.49
2018-06-14T09:45:08.268Z,1012.19
2018-06-14T09:46:08.267Z,1012.22
2018-06-14T09:47:08.267Z,1009.13
2018-06-14T09:48:08.263Z,1012.02
2018-06-14T09:49:08.265Z,1012.42
2018-06-14T09:50:08.633Z,1012.45
2018-06-14T09:51:08.259Z,1012.49
2018-06-14T09:52:08.265Z,1012.50
2018-06-14T09:53:08.255Z,1012.31
2018-06-14T09:54:08.251Z,1009.13
2018-06-14T09:55:08.266Z,1010.49
2018-06-14T09:56:08.299Z,1012.45
2018-06-14T09:57:08.550Z,1012.71
2018-06-14T09:58:08.251Z,1012.80
2018-06-14T09:59:08.312Z,1013.20
2018-06-14T10:00:08.246Z,1013.07
2018-06-14T10:01:08.318Z,1013.19
2018-06-14T10:02:09.058Z,1013.10
2018-06-14T10:03:08.330Z,1012.68
2018-06-14T10:04:08.547Z,1012.55
2018-06-14T10:05:08.239Z,1012.92
2018-06-14T10:06:08.306Z,1013.49
2018-06-14T10:07:08.253Z,1013.60
2018-06-14T10:08:08.274Z,1013.44
2018-06-14T10:09:08.223Z,1013.29
2018-06-14T10:10:08.235Z,1012.66
2018-06-14T10:11:08.526Z,1012.58
2018-06-14T10:12:08.237Z,1012.51
2018-06-14T10:13:08.216Z,1012.67
2018-06-14T10:14:08.271Z,1012.51
2018-06-14T10:15:08.228Z,1012.33
2018-06-14T10:16:08.232Z,1012.74
2018-06-14T10:17:08.227Z,1012.87
2018-06-14T10:18:08.525Z,1012.86
2018-06-14T10:19:08.269Z,1012.19
2018-06-14T10:21:08.259Z,1011.90
2018-06-14T10:22:08.343Z,1011.71
2018-06-14T10:23:08.211Z,1011.40
2018-06-14T10:24:08.206Z,1009.65
2018-06-14T10:25:08.510Z,1011.11
2018-06-14T10:26:08.225Z,1010.92
2018-06-14T10:27:08.257Z,1010.64
2018-06-14T10:28:08.211Z,1010.43
2018-06-14T10:29:08.207Z,1010.26
2018-06-14T10:30:08.206Z,1010.17
2018-06-14T10:31:08.212Z,1010.09
2018-06-14T10:32:08.506Z,1009.88
2018-06-14T10:33:08.363Z,1009.69
2018-06-14T10:34:08.207Z,1009.50
2018-06-14T10:35:08.215Z,1009.42
2018-06-14T10:36:08.211Z,1009.38
2018-06-14T10:37:08.212Z,1009.42
2018-06-14T10:38:08.508Z,1009.28
2018-06-14T10:39:08.285Z,1009.28
2018-06-14T10:40:08.207Z,1009.36
2018-06-14T10:41:08.415Z,1009.37
2018-06-14T10:42:08.368Z,1009.41
2018-06-14T10:43:08.211Z,1009.41
2018-06-14T10:44:08.587Z,1009.35
2018-06-14T10:45:08.264Z,1009.29
2018-06-14T10:46:08.216Z,1009.17
2018-06-14T10:47:08.208Z,1009.27
2018-06-14T10:48:08.234Z,1009.17
2018-06-14T10:49:08.211Z,1009.07
2018-06-14T10:50:08.524Z,1009.29
2018-06-14T10:51:08.259Z,1009.35
2018-06-14T10:52:08.259Z,1009.33
2018-06-14T10:53:08.236Z,1009.36
2018-06-14T10:54:08.224Z,1009.41
2018-06-14T10:55:08.306Z,1009.43
2018-06-14T10:56:08.596Z,1009.43
2018-06-14T10:57:08.306Z,1009.41
2018-06-14T10:58:08.237Z,1009.53
2018-06-14T10:59:08.215Z,1009.53
2018-06-14T11:00:08.219Z,1009.46
2018-06-14T11:01:08.225Z,1009.49
2018-06-14T11:02:08.267Z,1008.96
2018-06-14T11:03:08.583Z,1008.57
2018-06-14T11:04:08.397Z,1008.50
2018-06-14T11:05:08.232Z,1008.45
2018-06-14T11:06:08.227Z,1008.49
2018-06-14T11:07:08.219Z,1008.50
2018-06-14T11:08:08.441Z,1008.49
2018-06-14T11:09:08.596Z,1008.45
2018-06-14T11:10:08.247Z,1008.50
2018-06-14T11:11:08.258Z,1008.67
2018-06-14T11:12:08.257Z,1008.59
2018-06-14T11:13:08.276Z,1008.52
2018-06-14T11:14:08.253Z,1008.54
2018-06-14T11:15:08.597Z,1008.54
2018-06-14T11:16:09.278Z,1008.37
2018-06-14T11:17:08.211Z,1008.41
2018-06-14T11:18:08.369Z,1008.38
2018-06-14T11:19:08.307Z,1008.40
2018-06-14T11:20:08.211Z,1008.37
2018-06-14T11:21:08.645Z,1008.40
2018-06-14T11:22:08.211Z,1009.37
2018-06-14T11:23:11.337Z,1008.48
2018-06-14T11:24:08.191Z,1008.47
2018-06-14T11:25:08.211Z,1008.72
2018-06-14T11:26:08.211Z,1008.39
2018-06-14T11:27:08.405Z,1008.41
2018-06-14T11:28:08.164Z,1008.37
2018-06-14T11:29:08.148Z,1008.33
2018-06-14T11:30:08.549Z,1008.32
2018-06-14T11:31:08.168Z,1008.23
2018-06-14T11:32:08.219Z,1008.20
2018-06-14T11:33:09.075Z,1008.18
2018-06-14T11:34:08.413Z,1008.15
2018-06-14T11:35:08.506Z,1008.20
2018-06-14T11:37:08.403Z,1008.29
2018-06-14T11:38:08.112Z,1008.23
2018-06-14T11:39:08.164Z,1008.19
2018-06-14T11:40:08.478Z,1008.21
2018-06-14T11:41:08.184Z,1008.17
2018-06-14T11:42:08.164Z,1008.20
2018-06-14T11:44:08.135Z,1008.20
2018-06-14T11:45:08.177Z,1008.15
2018-06-14T11:46:08.066Z,1008.20
2018-06-14T11:47:08.422Z,1008.23
2018-06-14T11:48:08.127Z,1008.42
2018-06-14T11:49:08.167Z,1008.47
2018-06-14T11:50:08.127Z,1008.44
2018-06-14T11:51:08.198Z,1009.57
2018-06-14T11:52:08.072Z,1009.53
2018-06-14T11:53:08.163Z,1009.39
2018-06-14T11:55:08.362Z,1009.53
2018-06-14T11:56:08.078Z,1009.43
2018-06-14T11:57:08.036Z,1009.41
2018-06-14T11:58:08.067Z,1009.44
2018-06-14T11:59:08.115Z,1008.23
2018-06-14T12:00:08.021Z,1008.38
2018-06-14T12:01:07.997Z,1008.25
2018-06-14T12:02:08.259Z,1008.15
2018-06-14T12:03:08.020Z,1008.20
2018-06-14T12:04:08.924Z,1008.13
2018-06-14T12:05:07.923Z,1008.10
2018-06-14T12:06:07.973Z,1008.01
2018-06-14T12:07:08.032Z,1008.00
2018-06-14T12:08:07.925Z,1008.09
2018-06-14T12:09:08.327Z,1008.08
2018-06-14T12:10:07.923Z,1008.22
2018-06-14T12:11:07.912Z,1009.14
2018-06-14T12:12:07.974Z,1009.12
2018-06-14T12:13:07.923Z,1009.20
2018-06-14T12:14:07.926Z,1009.19
2018-06-14T12:15:08.027Z,1009.04
2018-06-14T12:16:08.213Z,1009.10
2018-06-14T12:17:07.926Z,1009.05
2018-06-14T12:18:07.887Z,1008.09
2018-06-14T12:19:08.070Z,1007.90
2018-06-14T12:20:07.875Z,1007.95
2018-06-14T12:21:07.923Z,1008.42
2018-06-14T12:22:08.215Z,1008.70
2018-06-14T12:23:07.972Z,1008.84
2018-06-14T12:24:08.164Z,1008.86
2018-06-14T12:25:08.020Z,1008.95
2018-06-14T12:26:07.877Z,1008.84
2018-06-14T12:28:08.310Z,1008.51
2018-06-14T12:29:08.163Z,1007.80
2018-06-14T12:30:08.164Z,1007.83
2018-06-14T12:31:08.041Z,1007.85
2018-06-14T12:32:08.115Z,1007.92
2018-06-14T12:33:08.083Z,1008.05
2018-06-14T12:34:08.269Z,1008.84
2018-06-14T12:35:07.972Z,1008.84
2018-06-14T12:36:08.088Z,1008.56
2018-06-14T12:37:08.316Z,1008.79
2018-06-14T12:38:07.831Z,1008.70
2018-06-14T12:40:08.213Z,1008.63
2018-06-14T12:41:07.827Z,1008.74
2018-06-14T12:42:07.828Z,1008.70
2018-06-14T12:43:07.840Z,1008.71
2018-06-14T12:44:07.823Z,1008.67
2018-06-14T12:46:08.259Z,1008.54
2018-06-14T12:47:07.821Z,1008.45
2018-06-14T12:48:08.123Z,1007.64
2018-06-14T12:49:07.780Z,1007.45
2018-06-14T12:50:07.782Z,1007.44
2018-06-14T12:51:07.831Z,1007.42
2018-06-14T12:52:08.259Z,1007.52
2018-06-14T12:53:07.885Z,1008.56
2018-06-14T12:54:07.779Z,1007.88
2018-06-14T12:55:07.769Z,1007.63
2018-06-14T12:56:07.827Z,1007.58
2018-06-14T12:57:07.758Z,1007.67
2018-06-14T12:58:08.163Z,1007.57
2018-06-14T13:01:07.805Z,1007.60
2018-06-14T13:02:07.779Z,1007.53
2018-06-14T13:03:07.908Z,1008.47
2018-06-14T13:04:08.113Z,1008.10
2018-06-14T13:06:09.316Z,1007.36
2018-06-14T13:07:07.733Z,1007.38
2018-06-14T13:08:07.729Z,1007.47
2018-06-14T13:09:07.795Z,1007.38
2018-06-14T13:10:07.827Z,1007.39
2018-06-14T13:11:08.128Z,1007.39
2018-06-14T13:12:07.709Z,1007.42
2018-06-14T13:13:07.794Z,1007.42
2018-06-14T13:14:07.720Z,1008.15
2018-06-14T13:15:07.828Z,1008.22
2018-06-14T13:16:07.876Z,1008.15
2018-06-14T13:17:07.827Z,1008.10
2018-06-14T13:18:08.084Z,1008.06
2018-06-14T13:19:07.833Z,1007.25
2018-06-14T13:20:07.786Z,1007.22
2018-06-14T13:21:07.786Z,1008.14
2018-06-14T13:22:07.834Z,1007.28
2018-06-14T13:23:07.783Z,1008.11
2018-06-14T13:24:08.074Z,1007.27